sensor_id;sensor_type;location;lat;lon;timestamp;temperature;humidity
52103;DHT22;38101;53.126;6.878;2022-08-19T00:02:04;17.20;99.90
52103;DHT22;38101;53.126;6.878;2022-08-19T00:04:32;17.20;99.90
52103;DHT22;38101;53.126;6.878;2022-08-19T00:07:00;17.10;99.90
52103;DHT22;38101;53.126;6.878;2022-08-19T00:09:26;17.10;99.90
52103;DHT22;38101;53.126;6.878;2022-08-19T00:11:53;17.10;99.90
52103;DHT22;38101;53.126;6.878;2022-08-19T00:14:21;17.10;99.90
52103;DHT22;38101;53.126;6.878;2022-08-19T00:16:48;17.10;99.90
52103;DHT22;38101;53.126;6.878;2022-08-19T00:19:15;17.10;99.90
52103;DHT22;38101;53.126;6.878;2022-08-19T00:21:41;17.10;99.90
52103;DHT22;38101;53.126;6.878;2022-08-19T00:24:09;17.00;99.90
52103;DHT22;38101;53.126;6.878;2022-08-19T00:26:36;17.00;99.90
52103;DHT22;38101;53.126;6.878;2022-08-19T00:29:02;16.90;99.90
52103;DHT22;38101;53.126;6.878;2022-08-19T00:31:28;16.90;99.90
52103;DHT22;38101;53.126;6.878;2022-08-19T00:33:54;16.90;99.90
52103;DHT22;38101;53.126;6.878;2022-08-19T00:36:20;16.90;99.90
52103;DHT22;38101;53.126;6.878;2022-08-19T00:38:46;16.90;99.90
52103;DHT22;38101;53.126;6.878;2022-08-19T00:41:14;16.80;99.90
52103;DHT22;38101;53.126;6.878;2022-08-19T00:43:40;16.80;99.90
52103;DHT22;38101;53.126;6.878;2022-08-19T00:46:07;16.80;99.90
52103;DHT22;38101;53.126;6.878;2022-08-19T00:48:33;16.80;99.90
52103;DHT22;38101;53.126;6.878;2022-08-19T00:51:00;16.80;99.90
52103;DHT22;38101;53.126;6.878;2022-08-19T00:53:28;16.80;99.90
52103;DHT22;38101;53.126;6.878;2022-08-19T00:55:57;16.70;99.90
52103;DHT22;38101;53.126;6.878;2022-08-19T00:58:27;16.70;99.90
52103;DHT22;38101;53.126;6.878;2022-08-19T01:00:53;16.80;99.90
52103;DHT22;38101;53.126;6.878;2022-08-19T01:03:21;16.80;99.90
52103;DHT22;38101;53.126;6.878;2022-08-19T01:05:48;16.80;99.90
52103;DHT22;38101;53.126;6.878;2022-08-19T01:08:15;16.80;99.90
52103;DHT22;38101;53.126;6.878;2022-08-19T01:10:46;16.70;99.90
52103;DHT22;38101;53.126;6.878;2022-08-19T01:13:16;16.70;99.90
52103;DHT22;38101;53.126;6.878;2022-08-19T01:15:46;16.60;99.90
52103;DHT22;38101;53.126;6.878;2022-08-19T01:18:14;16.60;99.90
52103;DHT22;38101;53.126;6.878;2022-08-19T01:20:41;16.60;99.90
52103;DHT22;38101;53.126;6.878;2022-08-19T01:23:07;16.60;99.90
52103;DHT22;38101;53.126;6.878;2022-08-19T01:25:44;16.60;99.90
52103;DHT22;38101;53.126;6.878;2022-08-19T01:28:20;16.60;99.90
52103;DHT22;38101;53.126;6.878;2022-08-19T01:30:46;16.60;99.90
52103;DHT22;38101;53.126;6.878;2022-08-19T01:33:13;16.50;99.90
52103;DHT22;38101;53.126;6.878;2022-08-19T01:35:39;16.50;99.90
52103;DHT22;38101;53.126;6.878;2022-08-19T01:38:08;16.50;99.90
52103;DHT22;38101;53.126;6.878;2022-08-19T01:40:38;16.40;99.90
52103;DHT22;38101;53.126;6.878;2022-08-19T01:43:05;16.40;99.90
52103;DHT22;38101;53.126;6.878;2022-08-19T01:45:32;16.40;99.90
52103;DHT22;38101;53.126;6.878;2022-08-19T01:47:59;16.30;99.90
52103;DHT22;38101;53.126;6.878;2022-08-19T01:50:25;16.40;99.90
52103;DHT22;38101;53.126;6.878;2022-08-19T01:52:51;16.30;99.90
52103;DHT22;38101;53.126;6.878;2022-08-19T01:55:20;16.30;99.90
52103;DHT22;38101;53.126;6.878;2022-08-19T01:57:50;16.30;99.90
52103;DHT22;38101;53.126;6.878;2022-08-19T02:00:19;16.30;99.90
52103;DHT22;38101;53.126;6.878;2022-08-19T02:02:44;16.30;99.90
52103;DHT22;38101;53.126;6.878;2022-08-19T02:05:11;16.30;99.90
52103;DHT22;38101;53.126;6.878;2022-08-19T02:07:38;16.20;99.90
52103;DHT22;38101;53.126;6.878;2022-08-19T02:10:12;16.20;99.90
52103;DHT22;38101;53.126;6.878;2022-08-19T02:12:38;16.20;99.90
52103;DHT22;38101;53.126;6.878;2022-08-19T02:15:05;16.20;99.90
52103;DHT22;38101;53.126;6.878;2022-08-19T02:17:31;16.20;99.90
52103;DHT22;38101;53.126;6.878;2022-08-19T02:19:57;16.20;99.90
52103;DHT22;38101;53.126;6.878;2022-08-19T02:22:23;16.20;99.90
52103;DHT22;38101;53.126;6.878;2022-08-19T02:24:51;16.10;99.90
52103;DHT22;38101;53.126;6.878;2022-08-19T02:27:17;16.10;99.90
52103;DHT22;38101;53.126;6.878;2022-08-19T02:29:43;16.10;99.90
52103;DHT22;38101;53.126;6.878;2022-08-19T02:32:10;16.10;99.90
52103;DHT22;38101;53.126;6.878;2022-08-19T02:34:36;16.10;99.90
52103;DHT22;38101;53.126;6.878;2022-08-19T02:37:02;16.00;99.90
52103;DHT22;38101;53.126;6.878;2022-08-19T02:39:27;16.00;99.90
52103;DHT22;38101;53.126;6.878;2022-08-19T02:41:53;16.10;99.90
52103;DHT22;38101;53.126;6.878;2022-08-19T02:44:19;16.10;99.90
52103;DHT22;38101;53.126;6.878;2022-08-19T02:46:48;16.10;99.90
52103;DHT22;38101;53.126;6.878;2022-08-19T02:49:15;16.10;99.90
52103;DHT22;38101;53.126;6.878;2022-08-19T02:51:43;16.00;99.90
52103;DHT22;38101;53.126;6.878;2022-08-19T02:54:10;16.10;99.90
52103;DHT22;38101;53.126;6.878;2022-08-19T02:56:39;16.10;99.90
52103;DHT22;38101;53.126;6.878;2022-08-19T02:59:05;16.10;99.90
52103;DHT22;38101;53.126;6.878;2022-08-19T03:01:34;16.00;99.90
52103;DHT22;38101;53.126;6.878;2022-08-19T03:04:01;16.10;99.90
52103;DHT22;38101;53.126;6.878;2022-08-19T03:06:29;16.10;99.90
52103;DHT22;38101;53.126;6.878;2022-08-19T03:08:55;16.10;99.90
52103;DHT22;38101;53.126;6.878;2022-08-19T03:11:22;16.10;99.90
52103;DHT22;38101;53.126;6.878;2022-08-19T03:13:48;16.10;99.90
52103;DHT22;38101;53.126;6.878;2022-08-19T03:16:21;16.10;99.90
52103;DHT22;38101;53.126;6.878;2022-08-19T03:18:48;16.10;99.90
52103;DHT22;38101;53.126;6.878;2022-08-19T03:21:20;16.10;99.90
52103;DHT22;38101;53.126;6.878;2022-08-19T03:23:47;16.10;99.90
52103;DHT22;38101;53.126;6.878;2022-08-19T03:26:13;16.10;99.90
52103;DHT22;38101;53.126;6.878;2022-08-19T03:28:41;16.10;99.90
52103;DHT22;38101;53.126;6.878;2022-08-19T03:31:11;16.10;99.90
52103;DHT22;38101;53.126;6.878;2022-08-19T03:33:37;16.10;99.90
52103;DHT22;38101;53.126;6.878;2022-08-19T03:36:18;16.00;99.90
52103;DHT22;38101;53.126;6.878;2022-08-19T03:38:47;16.00;99.90
52103;DHT22;38101;53.126;6.878;2022-08-19T03:41:20;16.00;99.90
52103;DHT22;38101;53.126;6.878;2022-08-19T03:43:46;15.90;99.90
52103;DHT22;38101;53.126;6.878;2022-08-19T03:46:15;15.80;99.90
52103;DHT22;38101;53.126;6.878;2022-08-19T03:48:42;15.80;99.90
52103;DHT22;38101;53.126;6.878;2022-08-19T03:51:18;15.80;99.90
52103;DHT22;38101;53.126;6.878;2022-08-19T03:53:45;15.80;99.90
52103;DHT22;38101;53.126;6.878;2022-08-19T03:56:12;15.80;99.90
52103;DHT22;38101;53.126;6.878;2022-08-19T03:58:39;15.70;99.90
52103;DHT22;38101;53.126;6.878;2022-08-19T04:01:14;15.60;99.90
52103;DHT22;38101;53.126;6.878;2022-08-19T04:03:40;15.40;99.90
52103;DHT22;38101;53.126;6.878;2022-08-19T04:06:15;15.40;99.90
52103;DHT22;38101;53.126;6.878;2022-08-19T04:08:43;15.40;99.90
52103;DHT22;38101;53.126;6.878;2022-08-19T04:11:11;15.40;99.90
52103;DHT22;38101;53.126;6.878;2022-08-19T04:13:37;15.30;99.90
52103;DHT22;38101;53.126;6.878;2022-08-19T04:16:04;15.30;99.90
52103;DHT22;38101;53.126;6.878;2022-08-19T04:18:29;15.40;99.90
52103;DHT22;38101;53.126;6.878;2022-08-19T04:20:55;15.30;99.90
52103;DHT22;38101;53.126;6.878;2022-08-19T04:23:22;15.30;99.90
52103;DHT22;38101;53.126;6.878;2022-08-19T04:25:49;15.30;99.90
52103;DHT22;38101;53.126;6.878;2022-08-19T04:28:15;15.30;99.90
52103;DHT22;38101;53.126;6.878;2022-08-19T04:30:46;15.20;99.90
52103;DHT22;38101;53.126;6.878;2022-08-19T04:33:17;15.10;99.90
52103;DHT22;38101;53.126;6.878;2022-08-19T04:35:47;15.10;99.90
52103;DHT22;38101;53.126;6.878;2022-08-19T04:38:15;15.10;99.90
52103;DHT22;38101;53.126;6.878;2022-08-19T04:40:42;15.00;99.90
52103;DHT22;38101;53.126;6.878;2022-08-19T04:43:27;14.90;99.90
52103;DHT22;38101;53.126;6.878;2022-08-19T04:45:53;15.10;99.90
52103;DHT22;38101;53.126;6.878;2022-08-19T04:48:19;15.00;99.90
52103;DHT22;38101;53.126;6.878;2022-08-19T04:50:58;15.00;99.90
52103;DHT22;38101;53.126;6.878;2022-08-19T04:53:31;15.10;99.90
52103;DHT22;38101;53.126;6.878;2022-08-19T04:55:59;15.10;99.90
52103;DHT22;38101;53.126;6.878;2022-08-19T04:58:27;15.10;99.90
52103;DHT22;38101;53.126;6.878;2022-08-19T05:00:53;15.10;99.90
52103;DHT22;38101;53.126;6.878;2022-08-19T05:03:19;15.10;99.90
52103;DHT22;38101;53.126;6.878;2022-08-19T05:05:48;15.10;99.90
52103;DHT22;38101;53.126;6.878;2022-08-19T05:08:16;15.20;99.90
52103;DHT22;38101;53.126;6.878;2022-08-19T05:10:50;15.20;99.90
52103;DHT22;38101;53.126;6.878;2022-08-19T05:13:18;15.20;99.90
52103;DHT22;38101;53.126;6.878;2022-08-19T05:15:53;15.20;99.90
52103;DHT22;38101;53.126;6.878;2022-08-19T05:18:19;15.20;99.90
52103;DHT22;38101;53.126;6.878;2022-08-19T05:21:09;15.20;99.90
52103;DHT22;38101;53.126;6.878;2022-08-19T05:23:54;15.10;99.90
52103;DHT22;38101;53.126;6.878;2022-08-19T05:26:20;15.00;99.90
52103;DHT22;38101;53.126;6.878;2022-08-19T05:28:46;14.90;99.90
52103;DHT22;38101;53.126;6.878;2022-08-19T05:31:11;14.90;99.90
52103;DHT22;38101;53.126;6.878;2022-08-19T05:33:38;14.80;99.90
52103;DHT22;38101;53.126;6.878;2022-08-19T05:36:05;14.80;99.90
52103;DHT22;38101;53.126;6.878;2022-08-19T05:38:35;14.80;99.90
52103;DHT22;38101;53.126;6.878;2022-08-19T05:41:09;14.80;99.90
52103;DHT22;38101;53.126;6.878;2022-08-19T05:43:35;14.80;99.90
52103;DHT22;38101;53.126;6.878;2022-08-19T05:46:01;14.80;99.90
52103;DHT22;38101;53.126;6.878;2022-08-19T05:48:27;14.80;99.90
52103;DHT22;38101;53.126;6.878;2022-08-19T05:50:53;14.80;99.90
52103;DHT22;38101;53.126;6.878;2022-08-19T05:53:18;14.90;99.90
52103;DHT22;38101;53.126;6.878;2022-08-19T05:55:44;15.00;99.90
52103;DHT22;38101;53.126;6.878;2022-08-19T05:58:10;15.00;99.90
52103;DHT22;38101;53.126;6.878;2022-08-19T06:00:37;15.10;99.90
52103;DHT22;38101;53.126;6.878;2022-08-19T06:03:03;15.10;99.90
52103;DHT22;38101;53.126;6.878;2022-08-19T06:05:32;15.20;99.90
52103;DHT22;38101;53.126;6.878;2022-08-19T06:07:58;15.20;99.90
52103;DHT22;38101;53.126;6.878;2022-08-19T06:10:24;15.30;99.90
52103;DHT22;38101;53.126;6.878;2022-08-19T06:12:50;15.30;99.90
52103;DHT22;38101;53.126;6.878;2022-08-19T06:15:15;15.40;99.90
52103;DHT22;38101;53.126;6.878;2022-08-19T06:17:41;15.40;99.90
52103;DHT22;38101;53.126;6.878;2022-08-19T06:20:12;15.50;99.90
52103;DHT22;38101;53.126;6.878;2022-08-19T06:22:40;15.60;99.90
52103;DHT22;38101;53.126;6.878;2022-08-19T06:25:07;15.70;99.90
52103;DHT22;38101;53.126;6.878;2022-08-19T06:27:34;15.80;99.90
52103;DHT22;38101;53.126;6.878;2022-08-19T06:30:01;15.80;99.90
52103;DHT22;38101;53.126;6.878;2022-08-19T06:32:26;15.90;99.90
52103;DHT22;38101;53.126;6.878;2022-08-19T06:34:52;16.00;99.90
52103;DHT22;38101;53.126;6.878;2022-08-19T06:37:18;16.10;99.90
52103;DHT22;38101;53.126;6.878;2022-08-19T06:39:44;16.20;99.90
52103;DHT22;38101;53.126;6.878;2022-08-19T06:42:11;16.30;99.90
52103;DHT22;38101;53.126;6.878;2022-08-19T06:44:42;16.40;99.90
52103;DHT22;38101;53.126;6.878;2022-08-19T06:47:12;16.60;99.90
52103;DHT22;38101;53.126;6.878;2022-08-19T06:49:38;16.70;99.90
52103;DHT22;38101;53.126;6.878;2022-08-19T06:52:05;16.80;99.90
52103;DHT22;38101;53.126;6.878;2022-08-19T06:54:31;16.90;99.90
52103;DHT22;38101;53.126;6.878;2022-08-19T06:57:01;16.90;99.90
52103;DHT22;38101;53.126;6.878;2022-08-19T06:59:28;17.00;99.90
52103;DHT22;38101;53.126;6.878;2022-08-19T07:01:57;17.10;99.90
52103;DHT22;38101;53.126;6.878;2022-08-19T07:04:27;17.10;99.90
52103;DHT22;38101;53.126;6.878;2022-08-19T07:07:03;17.20;99.90
52103;DHT22;38101;53.126;6.878;2022-08-19T07:09:31;17.30;99.90
52103;DHT22;38101;53.126;6.878;2022-08-19T07:11:57;17.30;99.90
52103;DHT22;38101;53.126;6.878;2022-08-19T07:14:25;17.50;99.90
52103;DHT22;38101;53.126;6.878;2022-08-19T07:16:53;17.50;99.90
52103;DHT22;38101;53.126;6.878;2022-08-19T07:19:21;17.50;99.90
52103;DHT22;38101;53.126;6.878;2022-08-19T07:21:50;17.60;99.90
52103;DHT22;38101;53.126;6.878;2022-08-19T07:24:19;17.70;99.90
52103;DHT22;38101;53.126;6.878;2022-08-19T07:26:45;17.80;99.90
52103;DHT22;38101;53.126;6.878;2022-08-19T07:29:12;17.80;99.90
52103;DHT22;38101;53.126;6.878;2022-08-19T07:31:38;17.90;99.90
52103;DHT22;38101;53.126;6.878;2022-08-19T07:34:06;17.90;99.90
52103;DHT22;38101;53.126;6.878;2022-08-19T07:36:33;18.00;99.90
52103;DHT22;38101;53.126;6.878;2022-08-19T07:39:03;18.10;99.90
52103;DHT22;38101;53.126;6.878;2022-08-19T07:41:30;18.20;99.90
52103;DHT22;38101;53.126;6.878;2022-08-19T07:43:58;18.30;99.90
52103;DHT22;38101;53.126;6.878;2022-08-19T07:46:24;18.30;99.90
52103;DHT22;38101;53.126;6.878;2022-08-19T07:48:50;18.40;99.90
52103;DHT22;38101;53.126;6.878;2022-08-19T07:51:19;18.50;99.90
52103;DHT22;38101;53.126;6.878;2022-08-19T07:53:45;18.60;99.90
52103;DHT22;38101;53.126;6.878;2022-08-19T07:56:14;18.70;99.90
52103;DHT22;38101;53.126;6.878;2022-08-19T07:58:43;18.80;99.90
52103;DHT22;38101;53.126;6.878;2022-08-19T08:01:12;18.80;99.90
52103;DHT22;38101;53.126;6.878;2022-08-19T08:03:38;18.90;99.90
52103;DHT22;38101;53.126;6.878;2022-08-19T08:06:22;19.00;99.90
52103;DHT22;38101;53.126;6.878;2022-08-19T08:09:07;19.00;99.90
52103;DHT22;38101;53.126;6.878;2022-08-19T08:11:40;19.10;99.90
52103;DHT22;38101;53.126;6.878;2022-08-19T08:14:08;19.30;99.90
52103;DHT22;38101;53.126;6.878;2022-08-19T08:16:38;19.40;99.90
52103;DHT22;38101;53.126;6.878;2022-08-19T08:19:05;19.50;99.90
52103;DHT22;38101;53.126;6.878;2022-08-19T08:21:32;19.60;99.90
52103;DHT22;38101;53.126;6.878;2022-08-19T08:23:58;19.70;99.90
52103;DHT22;38101;53.126;6.878;2022-08-19T08:26:24;19.70;99.90
52103;DHT22;38101;53.126;6.878;2022-08-19T08:28:51;19.70;99.90
52103;DHT22;38101;53.126;6.878;2022-08-19T08:31:18;19.90;99.90
52103;DHT22;38101;53.126;6.878;2022-08-19T08:33:44;20.00;99.90
52103;DHT22;38101;53.126;6.878;2022-08-19T08:36:12;20.10;99.90
52103;DHT22;38101;53.126;6.878;2022-08-19T08:38:39;20.10;99.90
52103;DHT22;38101;53.126;6.878;2022-08-19T08:44:03;20.20;99.90
52103;DHT22;38101;53.126;6.878;2022-08-19T08:46:49;20.30;99.90
52103;DHT22;38101;53.126;6.878;2022-08-19T08:52:05;20.30;99.90
52103;DHT22;38101;53.126;6.878;2022-08-19T08:54:43;20.40;99.90
52103;DHT22;38101;53.126;6.878;2022-08-19T08:57:35;20.50;99.90
52103;DHT22;38101;53.126;6.878;2022-08-19T09:00:08;20.70;99.90
52103;DHT22;38101;53.126;6.878;2022-08-19T09:02:35;20.80;99.90
52103;DHT22;38101;53.126;6.878;2022-08-19T09:05:01;20.80;99.90
52103;DHT22;38101;53.126;6.878;2022-08-19T09:10:10;21.00;99.90
52103;DHT22;38101;53.126;6.878;2022-08-19T09:15:28;21.10;99.90
52103;DHT22;38101;53.126;6.878;2022-08-19T09:18:00;21.10;99.90
52103;DHT22;38101;53.126;6.878;2022-08-19T09:20:27;21.20;99.90
52103;DHT22;38101;53.126;6.878;2022-08-19T09:22:53;21.20;99.90
52103;DHT22;38101;53.126;6.878;2022-08-19T09:25:20;21.20;99.90
52103;DHT22;38101;53.126;6.878;2022-08-19T09:27:50;21.30;99.90
52103;DHT22;38101;53.126;6.878;2022-08-19T09:30:21;21.30;99.90
52103;DHT22;38101;53.126;6.878;2022-08-19T09:32:48;21.40;99.90
52103;DHT22;38101;53.126;6.878;2022-08-19T09:35:14;21.30;99.90
52103;DHT22;38101;53.126;6.878;2022-08-19T09:37:42;21.40;99.90
52103;DHT22;38101;53.126;6.878;2022-08-19T09:40:09;21.50;99.90
52103;DHT22;38101;53.126;6.878;2022-08-19T09:42:36;21.60;99.90
52103;DHT22;38101;53.126;6.878;2022-08-19T09:45:03;21.70;99.90
52103;DHT22;38101;53.126;6.878;2022-08-19T09:47:29;21.70;99.90
52103;DHT22;38101;53.126;6.878;2022-08-19T09:49:54;21.70;99.90
52103;DHT22;38101;53.126;6.878;2022-08-19T09:52:20;21.80;99.90
52103;DHT22;38101;53.126;6.878;2022-08-19T09:54:46;21.80;99.90
52103;DHT22;38101;53.126;6.878;2022-08-19T09:57:11;22.00;99.90
52103;DHT22;38101;53.126;6.878;2022-08-19T09:59:38;22.00;99.90
52103;DHT22;38101;53.126;6.878;2022-08-19T10:02:04;22.10;99.90
52103;DHT22;38101;53.126;6.878;2022-08-19T10:04:30;22.20;99.90
52103;DHT22;38101;53.126;6.878;2022-08-19T10:07:15;22.20;99.90
52103;DHT22;38101;53.126;6.878;2022-08-19T10:09:40;22.30;99.90
52103;DHT22;38101;53.126;6.878;2022-08-19T10:12:07;22.30;99.90
52103;DHT22;38101;53.126;6.878;2022-08-19T10:14:33;22.50;99.90
52103;DHT22;38101;53.126;6.878;2022-08-19T10:16:59;22.60;99.90
52103;DHT22;38101;53.126;6.878;2022-08-19T10:19:26;22.60;99.90
52103;DHT22;38101;53.126;6.878;2022-08-19T10:21:58;22.70;99.90
52103;DHT22;38101;53.126;6.878;2022-08-19T10:24:24;22.80;99.90
52103;DHT22;38101;53.126;6.878;2022-08-19T10:26:51;22.90;99.90
52103;DHT22;38101;53.126;6.878;2022-08-19T10:29:17;23.00;99.90
52103;DHT22;38101;53.126;6.878;2022-08-19T10:31:42;23.00;99.90
52103;DHT22;38101;53.126;6.878;2022-08-19T10:34:08;23.10;99.90
52103;DHT22;38101;53.126;6.878;2022-08-19T10:36:35;23.10;99.90
52103;DHT22;38101;53.126;6.878;2022-08-19T10:39:07;23.20;99.90
52103;DHT22;38101;53.126;6.878;2022-08-19T10:41:36;23.20;99.90
52103;DHT22;38101;53.126;6.878;2022-08-19T10:44:06;23.40;99.90
52103;DHT22;38101;53.126;6.878;2022-08-19T10:46:34;23.40;99.90
52103;DHT22;38101;53.126;6.878;2022-08-19T10:49:02;23.50;99.90
52103;DHT22;38101;53.126;6.878;2022-08-19T10:51:28;23.60;99.90
52103;DHT22;38101;53.126;6.878;2022-08-19T10:54:13;23.80;99.90
52103;DHT22;38101;53.126;6.878;2022-08-19T10:56:38;23.90;99.90
52103;DHT22;38101;53.126;6.878;2022-08-19T10:59:18;24.00;99.90
52103;DHT22;38101;53.126;6.878;2022-08-19T11:01:45;23.90;99.90
52103;DHT22;38101;53.126;6.878;2022-08-19T11:04:11;24.00;99.90
52103;DHT22;38101;53.126;6.878;2022-08-19T11:06:40;24.00;99.90
52103;DHT22;38101;53.126;6.878;2022-08-19T11:09:07;24.10;99.90
52103;DHT22;38101;53.126;6.878;2022-08-19T11:11:33;24.20;99.90
52103;DHT22;38101;53.126;6.878;2022-08-19T11:14:05;24.30;99.90
52103;DHT22;38101;53.126;6.878;2022-08-19T11:16:30;24.40;99.90
52103;DHT22;38101;53.126;6.878;2022-08-19T11:18:58;24.50;99.90
52103;DHT22;38101;53.126;6.878;2022-08-19T11:21:27;24.50;99.90
52103;DHT22;38101;53.126;6.878;2022-08-19T11:23:56;24.50;99.90
52103;DHT22;38101;53.126;6.878;2022-08-19T11:26:22;24.60;99.90
52103;DHT22;38101;53.126;6.878;2022-08-19T11:28:48;24.60;99.90
52103;DHT22;38101;53.126;6.878;2022-08-19T11:31:19;24.70;99.90
52103;DHT22;38101;53.126;6.878;2022-08-19T11:33:45;24.70;99.90
52103;DHT22;38101;53.126;6.878;2022-08-19T11:36:12;24.80;99.90
52103;DHT22;38101;53.126;6.878;2022-08-19T11:38:38;24.90;99.90
52103;DHT22;38101;53.126;6.878;2022-08-19T11:41:06;25.00;99.90
52103;DHT22;38101;53.126;6.878;2022-08-19T11:43:36;25.20;99.90
52103;DHT22;38101;53.126;6.878;2022-08-19T11:46:06;25.40;99.90
52103;DHT22;38101;53.126;6.878;2022-08-19T11:48:32;25.60;99.90
52103;DHT22;38101;53.126;6.878;2022-08-19T11:50:58;25.60;99.90
52103;DHT22;38101;53.126;6.878;2022-08-19T11:53:24;25.60;99.90
52103;DHT22;38101;53.126;6.878;2022-08-19T11:55:52;25.60;99.90
52103;DHT22;38101;53.126;6.878;2022-08-19T11:58:21;25.70;99.90
52103;DHT22;38101;53.126;6.878;2022-08-19T12:00:47;25.60;99.90
52103;DHT22;38101;53.126;6.878;2022-08-19T12:03:13;25.70;99.90
52103;DHT22;38101;53.126;6.878;2022-08-19T12:05:40;25.80;99.90
52103;DHT22;38101;53.126;6.878;2022-08-19T12:08:07;26.00;99.90
52103;DHT22;38101;53.126;6.878;2022-08-19T12:10:33;26.10;99.90
52103;DHT22;38101;53.126;6.878;2022-08-19T12:13:00;26.30;99.90
52103;DHT22;38101;53.126;6.878;2022-08-19T12:15:27;26.40;99.90
52103;DHT22;38101;53.126;6.878;2022-08-19T12:17:54;26.50;99.90
52103;DHT22;38101;53.126;6.878;2022-08-19T12:20:23;26.60;99.90
52103;DHT22;38101;53.126;6.878;2022-08-19T12:22:50;26.40;99.90
52103;DHT22;38101;53.126;6.878;2022-08-19T12:25:17;26.20;99.90
52103;DHT22;38101;53.126;6.878;2022-08-19T12:27:42;26.10;99.90
52103;DHT22;38101;53.126;6.878;2022-08-19T12:30:11;26.10;99.90
52103;DHT22;38101;53.126;6.878;2022-08-19T12:32:38;26.10;99.90
52103;DHT22;38101;53.126;6.878;2022-08-19T12:35:04;26.00;99.90
52103;DHT22;38101;53.126;6.878;2022-08-19T12:37:30;26.10;99.90
52103;DHT22;38101;53.126;6.878;2022-08-19T12:39:57;26.20;99.90
52103;DHT22;38101;53.126;6.878;2022-08-19T12:42:23;26.30;99.90
52103;DHT22;38101;53.126;6.878;2022-08-19T12:44:49;26.30;99.90
52103;DHT22;38101;53.126;6.878;2022-08-19T12:47:18;26.10;99.90
52103;DHT22;38101;53.126;6.878;2022-08-19T12:49:44;26.00;99.90
52103;DHT22;38101;53.126;6.878;2022-08-19T12:52:11;25.80;99.90
52103;DHT22;38101;53.126;6.878;2022-08-19T12:54:40;25.60;99.90
52103;DHT22;38101;53.126;6.878;2022-08-19T12:57:07;25.50;99.90
52103;DHT22;38101;53.126;6.878;2022-08-19T12:59:34;25.40;99.90
52103;DHT22;38101;53.126;6.878;2022-08-19T13:02:02;25.30;99.90
52103;DHT22;38101;53.126;6.878;2022-08-19T13:04:30;25.30;99.90
52103;DHT22;38101;53.126;6.878;2022-08-19T13:06:56;25.40;99.90
52103;DHT22;38101;53.126;6.878;2022-08-19T13:09:23;25.70;99.90
52103;DHT22;38101;53.126;6.878;2022-08-19T13:11:49;26.00;99.90
52103;DHT22;38101;53.126;6.878;2022-08-19T13:14:14;26.00;99.90
52103;DHT22;38101;53.126;6.878;2022-08-19T13:16:40;25.90;99.90
52103;DHT22;38101;53.126;6.878;2022-08-19T13:19:06;25.90;99.90
52103;DHT22;38101;53.126;6.878;2022-08-19T13:21:32;25.80;99.90
52103;DHT22;38101;53.126;6.878;2022-08-19T13:23:58;25.80;99.90
52103;DHT22;38101;53.126;6.878;2022-08-19T13:26:24;25.60;99.90
52103;DHT22;38101;53.126;6.878;2022-08-19T13:28:50;25.60;99.90
52103;DHT22;38101;53.126;6.878;2022-08-19T13:31:36;25.50;99.90
52103;DHT22;38101;53.126;6.878;2022-08-19T13:34:29;25.40;99.90
52103;DHT22;38101;53.126;6.878;2022-08-19T13:36:55;25.50;99.90
52103;DHT22;38101;53.126;6.878;2022-08-19T13:39:20;25.50;99.90
52103;DHT22;38101;53.126;6.878;2022-08-19T13:41:48;25.50;99.90
52103;DHT22;38101;53.126;6.878;2022-08-19T13:44:18;25.60;99.90
52103;DHT22;38101;53.126;6.878;2022-08-19T13:46:46;25.80;99.90
52103;DHT22;38101;53.126;6.878;2022-08-19T13:49:13;25.80;99.90
52103;DHT22;38101;53.126;6.878;2022-08-19T13:51:41;25.90;99.90
52103;DHT22;38101;53.126;6.878;2022-08-19T13:54:09;25.90;99.90
52103;DHT22;38101;53.126;6.878;2022-08-19T13:56:39;26.00;99.90
52103;DHT22;38101;53.126;6.878;2022-08-19T13:59:05;26.00;99.90
52103;DHT22;38101;53.126;6.878;2022-08-19T14:01:31;26.00;99.90
52103;DHT22;38101;53.126;6.878;2022-08-19T14:03:57;26.10;99.90
52103;DHT22;38101;53.126;6.878;2022-08-19T14:06:23;26.10;99.90
52103;DHT22;38101;53.126;6.878;2022-08-19T14:08:48;26.10;99.90
52103;DHT22;38101;53.126;6.878;2022-08-19T14:11:15;26.00;99.90
52103;DHT22;38101;53.126;6.878;2022-08-19T14:13:41;25.90;99.90
52103;DHT22;38101;53.126;6.878;2022-08-19T14:16:09;25.80;99.90
52103;DHT22;38101;53.126;6.878;2022-08-19T14:18:35;25.70;99.90
52103;DHT22;38101;53.126;6.878;2022-08-19T14:21:01;25.60;99.90
52103;DHT22;38101;53.126;6.878;2022-08-19T14:23:28;25.60;99.90
52103;DHT22;38101;53.126;6.878;2022-08-19T14:26:03;25.40;99.90
52103;DHT22;38101;53.126;6.878;2022-08-19T14:28:29;25.20;99.90
52103;DHT22;38101;53.126;6.878;2022-08-19T14:30:55;25.00;99.90
52103;DHT22;38101;53.126;6.878;2022-08-19T14:33:21;24.90;99.90
52103;DHT22;38101;53.126;6.878;2022-08-19T14:35:47;24.90;99.90
52103;DHT22;38101;53.126;6.878;2022-08-19T14:38:17;24.80;99.90
52103;DHT22;38101;53.126;6.878;2022-08-19T14:40:44;24.70;99.90
52103;DHT22;38101;53.126;6.878;2022-08-19T14:43:11;24.60;99.90
52103;DHT22;38101;53.126;6.878;2022-08-19T14:45:40;24.60;99.90
52103;DHT22;38101;53.126;6.878;2022-08-19T14:48:07;24.60;99.90
52103;DHT22;38101;53.126;6.878;2022-08-19T14:50:34;24.60;99.90
52103;DHT22;38101;53.126;6.878;2022-08-19T14:53:07;24.50;99.90
52103;DHT22;38101;53.126;6.878;2022-08-19T14:55:33;24.60;99.90
52103;DHT22;38101;53.126;6.878;2022-08-19T14:57:59;24.60;99.90
52103;DHT22;38101;53.126;6.878;2022-08-19T15:00:26;24.60;99.90
52103;DHT22;38101;53.126;6.878;2022-08-19T15:02:52;24.70;99.90
52103;DHT22;38101;53.126;6.878;2022-08-19T15:05:18;24.70;99.90
52103;DHT22;38101;53.126;6.878;2022-08-19T15:07:44;24.70;99.90
52103;DHT22;38101;53.126;6.878;2022-08-19T15:10:14;24.60;99.90
52103;DHT22;38101;53.126;6.878;2022-08-19T15:12:40;24.60;99.90
52103;DHT22;38101;53.126;6.878;2022-08-19T15:15:12;24.50;99.90
52103;DHT22;38101;53.126;6.878;2022-08-19T15:17:39;24.50;99.90
52103;DHT22;38101;53.126;6.878;2022-08-19T15:20:07;24.50;99.90
52103;DHT22;38101;53.126;6.878;2022-08-19T15:22:33;24.50;99.90
52103;DHT22;38101;53.126;6.878;2022-08-19T15:25:01;24.40;99.90
52103;DHT22;38101;53.126;6.878;2022-08-19T15:27:26;24.30;99.90
52103;DHT22;38101;53.126;6.878;2022-08-19T15:29:52;24.30;99.90
52103;DHT22;38101;53.126;6.878;2022-08-19T15:32:18;24.20;99.90
52103;DHT22;38101;53.126;6.878;2022-08-19T15:34:44;24.10;99.90
52103;DHT22;38101;53.126;6.878;2022-08-19T15:37:14;24.10;99.90
52103;DHT22;38101;53.126;6.878;2022-08-19T15:39:40;24.00;99.90
52103;DHT22;38101;53.126;6.878;2022-08-19T15:42:06;24.00;99.90
52103;DHT22;38101;53.126;6.878;2022-08-19T15:44:32;24.00;99.90
52103;DHT22;38101;53.126;6.878;2022-08-19T15:46:58;23.90;99.90